sensor_id;sensor_type;location;lat;lon;timestamp;P1;durP1;ratioP1;P2;durP2;ratioP2
5684;SDS011;2865;53.114;9.130;2022-09-13T00:00:11;4.00;;;3.67;;
5684;SDS011;2865;53.114;9.130;2022-09-13T00:02:37;4.23;;;3.83;;
5684;SDS011;2865;53.114;9.130;2022-09-13T00:05:02;4.80;;;4.37;;
5684;SDS011;2865;53.114;9.130;2022-09-13T00:07:28;8.70;;;3.93;;
5684;SDS011;2865;53.114;9.130;2022-09-13T00:09:53;4.93;;;3.63;;
5684;SDS011;2865;53.114;9.130;2022-09-13T00:12:18;3.87;;;3.57;;
5684;SDS011;2865;53.114;9.130;2022-09-13T00:14:44;4.33;;;3.93;;
5684;SDS011;2865;53.114;9.130;2022-09-13T00:17:09;4.40;;;3.80;;
5684;SDS011;2865;53.114;9.130;2022-09-13T00:19:35;7.97;;;3.67;;
5684;SDS011;2865;53.114;9.130;2022-09-13T00:22:00;4.97;;;4.30;;
5684;SDS011;2865;53.114;9.130;2022-09-13T00:24:25;4.50;;;4.10;;
5684;SDS011;2865;53.114;9.130;2022-09-13T00:26:51;4.80;;;3.83;;
5684;SDS011;2865;53.114;9.130;2022-09-13T00:29:16;4.07;;;3.70;;
5684;SDS011;2865;53.114;9.130;2022-09-13T00:31:42;5.20;;;4.53;;
5684;SDS011;2865;53.114;9.130;2022-09-13T00:34:07;5.10;;;3.57;;
5684;SDS011;2865;53.114;9.130;2022-09-13T00:36:32;4.10;;;3.80;;
5684;SDS011;2865;53.114;9.130;2022-09-13T00:38:58;5.43;;;3.93;;
5684;SDS011;2865;53.114;9.130;2022-09-13T00:41:23;4.40;;;4.00;;
5684;SDS011;2865;53.114;9.130;2022-09-13T00:43:52;4.47;;;4.07;;
5684;SDS011;2865;53.114;9.130;2022-09-13T00:46:48;4.40;;;4.00;;
5684;SDS011;2865;53.114;9.130;2022-09-13T00:49:00;4.80;;;3.77;;
5684;SDS011;2865;53.114;9.130;2022-09-13T00:51:24;5.70;;;4.53;;
5684;SDS011;2865;53.114;9.130;2022-09-13T00:53:50;4.53;;;3.63;;
5684;SDS011;2865;53.114;9.130;2022-09-13T00:56:16;4.70;;;4.30;;
5684;SDS011;2865;53.114;9.130;2022-09-13T00:58:41;4.90;;;4.30;;
5684;SDS011;2865;53.114;9.130;2022-09-13T01:01:06;4.10;;;3.70;;
5684;SDS011;2865;53.114;9.130;2022-09-13T01:03:32;6.73;;;4.87;;
5684;SDS011;2865;53.114;9.130;2022-09-13T01:05:59;9.30;;;5.53;;
5684;SDS011;2865;53.114;9.130;2022-09-13T01:08:23;6.50;;;5.43;;
5684;SDS011;2865;53.114;9.130;2022-09-13T01:10:49;6.60;;;5.90;;
5684;SDS011;2865;53.114;9.130;2022-09-13T01:13:16;6.37;;;5.03;;
5684;SDS011;2865;53.114;9.130;2022-09-13T01:15:40;7.60;;;5.90;;
5684;SDS011;2865;53.114;9.130;2022-09-13T01:18:06;8.00;;;5.63;;
5684;SDS011;2865;53.114;9.130;2022-09-13T01:20:43;6.20;;;5.60;;
5684;SDS011;2865;53.114;9.130;2022-09-13T01:23:42;7.50;;;6.33;;
5684;SDS011;2865;53.114;9.130;2022-09-13T01:31:28;6.50;;;5.70;;
5684;SDS011;2865;53.114;9.130;2022-09-13T01:34:13;9.90;;;6.67;;
5684;SDS011;2865;53.114;9.130;2022-09-13T01:36:45;8.13;;;6.67;;
5684;SDS011;2865;53.114;9.130;2022-09-13T01:39:10;11.33;;;6.20;;
5684;SDS011;2865;53.114;9.130;2022-09-13T01:44:58;7.77;;;6.73;;
5684;SDS011;2865;53.114;9.130;2022-09-13T01:50:59;8.47;;;7.30;;
5684;SDS011;2865;53.114;9.130;2022-09-13T01:52:43;6.43;;;5.83;;
5684;SDS011;2865;53.114;9.130;2022-09-13T01:55:22;9.87;;;6.97;;
5684;SDS011;2865;53.114;9.130;2022-09-13T01:57:47;9.97;;;6.80;;
5684;SDS011;2865;53.114;9.130;2022-09-13T02:00:12;9.40;;;7.43;;
5684;SDS011;2865;53.114;9.130;2022-09-13T02:02:38;8.43;;;7.17;;
5684;SDS011;2865;53.114;9.130;2022-09-13T02:05:04;13.27;;;7.27;;
5684;SDS011;2865;53.114;9.130;2022-09-13T02:07:31;8.67;;;7.73;;
5684;SDS011;2865;53.114;9.130;2022-09-13T02:09:57;10.30;;;7.87;;
5684;SDS011;2865;53.114;9.130;2022-09-13T02:12:22;11.00;;;9.00;;
5684;SDS011;2865;53.114;9.130;2022-09-13T02:14:50;11.40;;;7.80;;
5684;SDS011;2865;53.114;9.130;2022-09-13T02:17:16;9.37;;;7.90;;
5684;SDS011;2865;53.114;9.130;2022-09-13T02:19:47;9.97;;;8.10;;
5684;SDS011;2865;53.114;9.130;2022-09-13T02:22:12;13.43;;;8.17;;
5684;SDS011;2865;53.114;9.130;2022-09-13T02:24:38;15.20;;;9.00;;
5684;SDS011;2865;53.114;9.130;2022-09-13T02:27:05;11.00;;;7.87;;
5684;SDS011;2865;53.114;9.130;2022-09-13T02:29:29;15.37;;;8.27;;
5684;SDS011;2865;53.114;9.130;2022-09-13T02:31:57;9.97;;;8.70;;
5684;SDS011;2865;53.114;9.130;2022-09-13T02:34:23;11.40;;;8.93;;
5684;SDS011;2865;53.114;9.130;2022-09-13T02:36:48;12.17;;;8.80;;
5684;SDS011;2865;53.114;9.130;2022-09-13T02:39:13;10.90;;;8.60;;
5684;SDS011;2865;53.114;9.130;2022-09-13T02:41:41;11.60;;;8.87;;
5684;SDS011;2865;53.114;9.130;2022-09-13T02:44:30;16.77;;;10.47;;
5684;SDS011;2865;53.114;9.130;2022-09-13T02:47:07;13.10;;;8.77;;
5684;SDS011;2865;53.114;9.130;2022-09-13T02:49:41;14.90;;;10.00;;
5684;SDS011;2865;53.114;9.130;2022-09-13T02:52:17;11.37;;;7.90;;
5684;SDS011;2865;53.114;9.130;2022-09-13T02:55:53;10.13;;;8.57;;
5684;SDS011;2865;53.114;9.130;2022-09-13T02:57:27;12.73;;;9.03;;
5684;SDS011;2865;53.114;9.130;2022-09-13T02:59:54;9.90;;;8.57;;
5684;SDS011;2865;53.114;9.130;2022-09-13T03:02:20;12.90;;;9.37;;
5684;SDS011;2865;53.114;9.130;2022-09-13T03:04:45;12.40;;;9.83;;
5684;SDS011;2865;53.114;9.130;2022-09-13T03:07:11;14.03;;;8.97;;
5684;SDS011;2865;53.114;9.130;2022-09-13T03:09:35;9.90;;;8.73;;
5684;SDS011;2865;53.114;9.130;2022-09-13T03:12:17;10.43;;;9.10;;
5684;SDS011;2865;53.114;9.130;2022-09-13T03:14:49;11.90;;;9.13;;
5684;SDS011;2865;53.114;9.130;2022-09-13T03:17:29;11.37;;;9.13;;
5684;SDS011;2865;53.114;9.130;2022-09-13T03:21:18;13.60;;;9.93;;
5684;SDS011;2865;53.114;9.130;2022-09-13T03:22:52;9.87;;;8.90;;
5684;SDS011;2865;53.114;9.130;2022-09-13T03:28:23;12.03;;;10.00;;
5684;SDS011;2865;53.114;9.130;2022-09-13T03:30:50;12.20;;;9.43;;
5684;SDS011;2865;53.114;9.130;2022-09-13T03:33:18;11.83;;;9.90;;
5684;SDS011;2865;53.114;9.130;2022-09-13T03:35:51;11.43;;;9.37;;
5684;SDS011;2865;53.114;9.130;2022-09-13T03:38:24;11.23;;;9.90;;
5684;SDS011;2865;53.114;9.130;2022-09-13T03:40:47;13.17;;;9.60;;
5684;SDS011;2865;53.114;9.130;2022-09-13T03:45:55;16.60;;;11.10;;
5684;SDS011;2865;53.114;9.130;2022-09-13T03:48:20;13.13;;;9.80;;
5684;SDS011;2865;53.114;9.130;2022-09-13T03:50:46;13.90;;;10.50;;
5684;SDS011;2865;53.114;9.130;2022-09-13T03:53:12;12.30;;;10.80;;
5684;SDS011;2865;53.114;9.130;2022-09-13T03:55:38;11.57;;;9.90;;
5684;SDS011;2865;53.114;9.130;2022-09-13T03:58:03;12.27;;;10.13;;
5684;SDS011;2865;53.114;9.130;2022-09-13T04:00:28;15.33;;;12.10;;
5684;SDS011;2865;53.114;9.130;2022-09-13T04:02:54;14.90;;;11.97;;
5684;SDS011;2865;53.114;9.130;2022-09-13T04:05:19;20.20;;;12.97;;
5684;SDS011;2865;53.114;9.130;2022-09-13T04:07:44;17.63;;;13.13;;
5684;SDS011;2865;53.114;9.130;2022-09-13T04:10:10;17.47;;;13.37;;
5684;SDS011;2865;53.114;9.130;2022-09-13T04:12:35;16.93;;;12.53;;
5684;SDS011;2865;53.114;9.130;2022-09-13T04:15:01;15.70;;;12.47;;
5684;SDS011;2865;53.114;9.130;2022-09-13T04:17:26;18.73;;;12.50;;
5684;SDS011;2865;53.114;9.130;2022-09-13T04:19:52;16.37;;;13.03;;
5684;SDS011;2865;53.114;9.130;2022-09-13T04:22:17;17.43;;;13.43;;
5684;SDS011;2865;53.114;9.130;2022-09-13T04:24:43;19.27;;;13.17;;
5684;SDS011;2865;53.114;9.130;2022-09-13T04:27:08;18.93;;;13.77;;
5684;SDS011;2865;53.114;9.130;2022-09-13T04:29:33;21.03;;;14.30;;
5684;SDS011;2865;53.114;9.130;2022-09-13T04:31:59;16.47;;;13.23;;
5684;SDS011;2865;53.114;9.130;2022-09-13T04:34:24;18.60;;;12.77;;
5684;SDS011;2865;53.114;9.130;2022-09-13T04:36:50;18.63;;;14.10;;
5684;SDS011;2865;53.114;9.130;2022-09-13T04:39:15;16.57;;;13.13;;
5684;SDS011;2865;53.114;9.130;2022-09-13T04:41:41;17.57;;;13.40;;
5684;SDS011;2865;53.114;9.130;2022-09-13T04:44:06;19.53;;;13.37;;
5684;SDS011;2865;53.114;9.130;2022-09-13T04:46:31;18.63;;;13.57;;
5684;SDS011;2865;53.114;9.130;2022-09-13T04:48:57;23.67;;;16.10;;
5684;SDS011;2865;53.114;9.130;2022-09-13T04:51:22;18.80;;;14.87;;
5684;SDS011;2865;53.114;9.130;2022-09-13T04:53:51;20.80;;;14.77;;
5684;SDS011;2865;53.114;9.130;2022-09-13T04:56:16;18.13;;;13.93;;
5684;SDS011;2865;53.114;9.130;2022-09-13T04:58:41;17.20;;;14.23;;
5684;SDS011;2865;53.114;9.130;2022-09-13T05:01:07;20.30;;;14.23;;
5684;SDS011;2865;53.114;9.130;2022-09-13T05:03:33;19.90;;;15.70;;
5684;SDS011;2865;53.114;9.130;2022-09-13T05:06:02;20.20;;;14.57;;
5684;SDS011;2865;53.114;9.130;2022-09-13T05:08:29;21.70;;;14.93;;
5684;SDS011;2865;53.114;9.130;2022-09-13T05:10:55;20.47;;;15.07;;
5684;SDS011;2865;53.114;9.130;2022-09-13T05:13:20;21.50;;;15.53;;
5684;SDS011;2865;53.114;9.130;2022-09-13T05:15:46;22.60;;;14.53;;
5684;SDS011;2865;53.114;9.130;2022-09-13T05:18:11;22.80;;;14.97;;
5684;SDS011;2865;53.114;9.130;2022-09-13T05:20:37;18.47;;;15.67;;
5684;SDS011;2865;53.114;9.130;2022-09-13T05:23:02;18.47;;;15.23;;
5684;SDS011;2865;53.114;9.130;2022-09-13T05:25:27;22.50;;;16.23;;
5684;SDS011;2865;53.114;9.130;2022-09-13T05:27:53;19.80;;;16.60;;
5684;SDS011;2865;53.114;9.130;2022-09-13T05:30:18;23.63;;;16.50;;
5684;SDS011;2865;53.114;9.130;2022-09-13T05:32:44;20.20;;;16.07;;
5684;SDS011;2865;53.114;9.130;2022-09-13T05:35:09;24.10;;;18.07;;
5684;SDS011;2865;53.114;9.130;2022-09-13T05:37:34;23.50;;;16.53;;
5684;SDS011;2865;53.114;9.130;2022-09-13T05:40:00;21.37;;;16.10;;
5684;SDS011;2865;53.114;9.130;2022-09-13T05:42:25;24.53;;;17.67;;
5684;SDS011;2865;53.114;9.130;2022-09-13T05:44:51;25.83;;;16.93;;
5684;SDS011;2865;53.114;9.130;2022-09-13T05:47:16;24.67;;;17.13;;
5684;SDS011;2865;53.114;9.130;2022-09-13T05:49:41;24.00;;;18.67;;
5684;SDS011;2865;53.114;9.130;2022-09-13T05:52:07;25.80;;;17.27;;
5684;SDS011;2865;53.114;9.130;2022-09-13T05:54:32;25.47;;;18.07;;
5684;SDS011;2865;53.114;9.130;2022-09-13T05:56:58;28.23;;;19.13;;
5684;SDS011;2865;53.114;9.130;2022-09-13T05:59:23;27.37;;;19.33;;
5684;SDS011;2865;53.114;9.130;2022-09-13T06:01:48;26.77;;;19.33;;
5684;SDS011;2865;53.114;9.130;2022-09-13T06:04:14;23.40;;;19.00;;
5684;SDS011;2865;53.114;9.130;2022-09-13T06:06:39;26.83;;;19.80;;
5684;SDS011;2865;53.114;9.130;2022-09-13T06:09:05;27.03;;;19.93;;
5684;SDS011;2865;53.114;9.130;2022-09-13T06:11:30;26.10;;;18.73;;
5684;SDS011;2865;53.114;9.130;2022-09-13T06:13:55;28.73;;;18.93;;
5684;SDS011;2865;53.114;9.130;2022-09-13T06:16:21;29.20;;;20.40;;
5684;SDS011;2865;53.114;9.130;2022-09-13T06:18:46;25.13;;;18.20;;
5684;SDS011;2865;53.114;9.130;2022-09-13T06:21:14;25.00;;;17.80;;
5684;SDS011;2865;53.114;9.130;2022-09-13T06:23:39;29.33;;;19.13;;
5684;SDS011;2865;53.114;9.130;2022-09-13T06:26:07;26.00;;;17.83;;
5684;SDS011;2865;53.114;9.130;2022-09-13T06:28:32;29.37;;;19.77;;
5684;SDS011;2865;53.114;9.130;2022-09-13T06:30:58;31.53;;;20.30;;
5684;SDS011;2865;53.114;9.130;2022-09-13T06:33:23;32.43;;;19.73;;
5684;SDS011;2865;53.114;9.130;2022-09-13T06:35:48;25.83;;;18.87;;
5684;SDS011;2865;53.114;9.130;2022-09-13T06:38:13;26.67;;;18.00;;
5684;SDS011;2865;53.114;9.130;2022-09-13T06:40:39;34.93;;;19.20;;
5684;SDS011;2865;53.114;9.130;2022-09-13T06:43:04;23.30;;;18.00;;
5684;SDS011;2865;53.114;9.130;2022-09-13T06:45:30;27.60;;;18.97;;
5684;SDS011;2865;53.114;9.130;2022-09-13T06:47:55;26.23;;;19.30;;
5684;SDS011;2865;53.114;9.130;2022-09-13T06:50:20;32.57;;;18.90;;
5684;SDS011;2865;53.114;9.130;2022-09-13T06:52:46;26.47;;;20.10;;
5684;SDS011;2865;53.114;9.130;2022-09-13T06:55:11;25.90;;;19.10;;
5684;SDS011;2865;53.114;9.130;2022-09-13T06:57:36;27.63;;;20.83;;
5684;SDS011;2865;53.114;9.130;2022-09-13T07:00:02;26.30;;;19.23;;
5684;SDS011;2865;53.114;9.130;2022-09-13T07:02:28;34.83;;;20.40;;
5684;SDS011;2865;53.114;9.130;2022-09-13T07:04:53;24.40;;;18.60;;
5684;SDS011;2865;53.114;9.130;2022-09-13T07:07:18;25.80;;;16.70;;
5684;SDS011;2865;53.114;9.130;2022-09-13T07:09:44;24.63;;;19.00;;
5684;SDS011;2865;53.114;9.130;2022-09-13T07:12:09;25.77;;;18.00;;
5684;SDS011;2865;53.114;9.130;2022-09-13T07:14:35;25.33;;;18.40;;
5684;SDS011;2865;53.114;9.130;2022-09-13T07:17:01;24.37;;;16.90;;
5684;SDS011;2865;53.114;9.130;2022-09-13T07:19:27;22.50;;;16.47;;
5684;SDS011;2865;53.114;9.130;2022-09-13T07:21:52;28.03;;;17.73;;
5684;SDS011;2865;53.114;9.130;2022-09-13T07:24:18;22.10;;;16.33;;
5684;SDS011;2865;53.114;9.130;2022-09-13T07:26:43;21.00;;;16.27;;
5684;SDS011;2865;53.114;9.130;2022-09-13T07:29:10;25.83;;;16.37;;
5684;SDS011;2865;53.114;9.130;2022-09-13T07:31:34;21.50;;;15.80;;
5684;SDS011;2865;53.114;9.130;2022-09-13T07:34:00;19.00;;;15.97;;
5684;SDS011;2865;53.114;9.130;2022-09-13T07:36:25;22.03;;;14.97;;
5684;SDS011;2865;53.114;9.130;2022-09-13T07:38:50;21.60;;;14.10;;
5684;SDS011;2865;53.114;9.130;2022-09-13T07:41:16;17.43;;;14.13;;
5684;SDS011;2865;53.114;9.130;2022-09-13T07:43:41;16.13;;;12.30;;
5684;SDS011;2865;53.114;9.130;2022-09-13T07:46:07;18.17;;;12.70;;
5684;SDS011;2865;53.114;9.130;2022-09-13T07:48:32;15.40;;;12.10;;
5684;SDS011;2865;53.114;9.130;2022-09-13T07:51:01;15.43;;;12.80;;
5684;SDS011;2865;53.114;9.130;2022-09-13T07:53:27;15.03;;;11.60;;
5684;SDS011;2865;53.114;9.130;2022-09-13T07:55:53;17.63;;;10.90;;
5684;SDS011;2865;53.114;9.130;2022-09-13T07:58:18;12.23;;;10.07;;
5684;SDS011;2865;53.114;9.130;2022-09-13T08:00:43;13.37;;;11.17;;
5684;SDS011;2865;53.114;9.130;2022-09-13T08:03:10;12.77;;;11.40;;
5684;SDS011;2865;53.114;9.130;2022-09-13T08:05:38;12.83;;;10.80;;
5684;SDS011;2865;53.114;9.130;2022-09-13T08:08:04;15.53;;;9.77;;
5684;SDS011;2865;53.114;9.130;2022-09-13T08:10:29;13.60;;;10.73;;
5684;SDS011;2865;53.114;9.130;2022-09-13T08:12:54;14.47;;;10.80;;
5684;SDS011;2865;53.114;9.130;2022-09-13T08:15:20;17.50;;;10.80;;
5684;SDS011;2865;53.114;9.130;2022-09-13T08:17:45;16.70;;;11.00;;
5684;SDS011;2865;53.114;9.130;2022-09-13T08:20:11;12.13;;;10.00;;
5684;SDS011;2865;53.114;9.130;2022-09-13T08:22:36;14.30;;;10.40;;
5684;SDS011;2865;53.114;9.130;2022-09-13T08:25:01;18.20;;;10.67;;
5684;SDS011;2865;53.114;9.130;2022-09-13T08:27:27;10.43;;;8.87;;
5684;SDS011;2865;53.114;9.130;2022-09-13T08:29:52;11.80;;;10.30;;
5684;SDS011;2865;53.114;9.130;2022-09-13T08:32:18;12.60;;;9.63;;
5684;SDS011;2865;53.114;9.130;2022-09-13T08:34:43;11.70;;;10.00;;
5684;SDS011;2865;53.114;9.130;2022-09-13T08:37:08;18.20;;;9.90;;
5684;SDS011;2865;53.114;9.130;2022-09-13T08:39:34;12.50;;;9.40;;
5684;SDS011;2865;53.114;9.130;2022-09-13T08:42:05;13.90;;;9.20;;
5684;SDS011;2865;53.114;9.130;2022-09-13T08:44:28;10.23;;;8.47;;
5684;SDS011;2865;53.114;9.130;2022-09-13T08:46:56;12.20;;;9.50;;
5684;SDS011;2865;53.114;9.130;2022-09-13T08:49:23;14.23;;;9.50;;
5684;SDS011;2865;53.114;9.130;2022-09-13T08:51:52;12.30;;;8.47;;
5684;SDS011;2865;53.114;9.130;2022-09-13T08:54:16;9.60;;;7.27;;
5684;SDS011;2865;53.114;9.130;2022-09-13T08:56:45;11.07;;;6.80;;
5684;SDS011;2865;53.114;9.130;2022-09-13T09:00:18;14.90;;;4.90;;
5684;SDS011;2865;53.114;9.130;2022-09-13T09:04:45;6.97;;;2.40;;
5684;SDS011;2865;53.114;9.130;2022-09-13T09:07:15;3.90;;;2.47;;
5684;SDS011;2865;53.114;9.130;2022-09-13T09:09:57;3.00;;;1.80;;
5684;SDS011;2865;53.114;9.130;2022-09-13T09:12:23;2.07;;;1.87;;
5684;SDS011;2865;53.114;9.130;2022-09-13T09:14:53;1.73;;;1.57;;
5684;SDS011;2865;53.114;9.130;2022-09-13T09:17:21;4.30;;;2.10;;
5684;SDS011;2865;53.114;9.130;2022-09-13T09:19:47;5.87;;;1.90;;
5684;SDS011;2865;53.114;9.130;2022-09-13T09:22:16;6.17;;;2.20;;
5684;SDS011;2865;53.114;9.130;2022-09-13T09:24:42;4.80;;;2.70;;
5684;SDS011;2865;53.114;9.130;2022-09-13T09:27:13;5.60;;;2.83;;
5684;SDS011;2865;53.114;9.130;2022-09-13T09:29:35;3.60;;;2.30;;
5684;SDS011;2865;53.114;9.130;2022-09-13T09:32:06;4.23;;;2.43;;
5684;SDS011;2865;53.114;9.130;2022-09-13T09:37:18;7.43;;;3.03;;
5684;SDS011;2865;53.114;9.130;2022-09-13T09:39:47;8.40;;;2.50;;
5684;SDS011;2865;53.114;9.130;2022-09-13T09:42:14;4.73;;;3.10;;
5684;SDS011;2865;53.114;9.130;2022-09-13T09:44:40;5.70;;;2.70;;
5684;SDS011;2865;53.114;9.130;2022-09-13T09:47:10;3.40;;;1.80;;
5684;SDS011;2865;53.114;9.130;2022-09-13T09:49:38;9.73;;;2.13;;
5684;SDS011;2865;53.114;9.130;2022-09-13T09:52:09;3.73;;;1.67;;
5684;SDS011;2865;53.114;9.130;2022-09-13T09:54:34;9.10;;;2.57;;
5684;SDS011;2865;53.114;9.130;2022-09-13T09:57:00;4.70;;;1.87;;
5684;SDS011;2865;53.114;9.130;2022-09-13T09:59:26;4.20;;;2.20;;
5684;SDS011;2865;53.114;9.130;2022-09-13T10:01:50;6.43;;;1.90;;
5684;SDS011;2865;53.114;9.130;2022-09-13T10:04:17;3.70;;;2.07;;
5684;SDS011;2865;53.114;9.130;2022-09-13T10:06:42;2.73;;;1.30;;
5684;SDS011;2865;53.114;9.130;2022-09-13T10:09:17;8.60;;;1.87;;
5684;SDS011;2865;53.114;9.130;2022-09-13T10:11:47;1.10;;;1.03;;
5684;SDS011;2865;53.114;9.130;2022-09-13T10:16:49;5.87;;;1.53;;
5684;SDS011;2865;53.114;9.130;2022-09-13T10:19:21;3.80;;;1.17;;
5684;SDS011;2865;53.114;9.130;2022-09-13T10:21:58;2.60;;;1.10;;
5684;SDS011;2865;53.114;9.130;2022-09-13T10:24:14;3.03;;;1.00;;
5684;SDS011;2865;53.114;9.130;2022-09-13T10:26:40;4.33;;;1.30;;
5684;SDS011;2865;53.114;9.130;2022-09-13T10:29:06;3.60;;;1.23;;
5684;SDS011;2865;53.114;9.130;2022-09-13T10:31:34;4.80;;;1.67;;
5684;SDS011;2865;53.114;9.130;2022-09-13T10:34:34;7.87;;;1.80;;
5684;SDS011;2865;53.114;9.130;2022-09-13T10:37:02;2.70;;;1.00;;
5684;SDS011;2865;53.114;9.130;2022-09-13T10:39:29;1.03;;;0.90;;
5684;SDS011;2865;53.114;9.130;2022-09-13T10:41:56;3.83;;;1.23;;
5684;SDS011;2865;53.114;9.130;2022-09-13T10:47:03;4.93;;;1.20;;
5684;SDS011;2865;53.114;9.130;2022-09-13T10:49:48;2.20;;;1.63;;
5684;SDS011;2865;53.114;9.130;2022-09-13T10:54:48;8.23;;;1.60;;
5684;SDS011;2865;53.114;9.130;2022-09-13T10:57:34;8.37;;;1.43;;
5684;SDS011;2865;53.114;9.130;2022-09-13T10:59:58;2.50;;;1.20;;
5684;SDS011;2865;53.114;9.130;2022-09-13T11:02:30;3.60;;;1.43;;
5684;SDS011;2865;53.114;9.130;2022-09-13T11:10:32;5.23;;;1.10;;
5684;SDS011;2865;53.114;9.130;2022-09-13T11:13:03;3.30;;;1.50;;
5684;SDS011;2865;53.114;9.130;2022-09-13T11:15:29;5.10;;;1.23;;
5684;SDS011;2865;53.114;9.130;2022-09-13T11:18:07;2.73;;;1.30;;
5684;SDS011;2865;53.114;9.130;2022-09-13T11:20:57;2.10;;;1.30;;
5684;SDS011;2865;53.114;9.130;2022-09-13T11:23:46;4.83;;;1.10;;
5684;SDS011;2865;53.114;9.130;2022-09-13T11:27:31;4.43;;;1.13;;
5684;SDS011;2865;53.114;9.130;2022-09-13T11:29:22;4.83;;;1.20;;
5684;SDS011;2865;53.114;9.130;2022-09-13T11:31:49;5.43;;;1.00;;
5684;SDS011;2865;53.114;9.130;2022-09-13T11:34:22;2.57;;;1.00;;
5684;SDS011;2865;53.114;9.130;2022-09-13T11:37:08;3.50;;;1.30;;
5684;SDS011;2865;53.114;9.130;2022-09-13T11:39:37;4.10;;;1.20;;
5684;SDS011;2865;53.114;9.130;2022-09-13T11:42:14;2.90;;;0.90;;
5684;SDS011;2865;53.114;9.130;2022-09-13T11:45:26;7.10;;;1.83;;
5684;SDS011;2865;53.114;9.130;2022-09-13T11:47:47;10.83;;;1.63;;
5684;SDS011;2865;53.114;9.130;2022-09-13T11:55:42;3.20;;;1.03;;
5684;SDS011;2865;53.114;9.130;2022-09-13T11:58:10;3.27;;;1.03;;
5684;SDS011;2865;53.114;9.130;2022-09-13T12:00:40;2.40;;;1.00;;
5684;SDS011;2865;53.114;9.130;2022-09-13T12:03:15;6.07;;;1.43;;
5684;SDS011;2865;53.114;9.130;2022-09-13T12:05:43;5.00;;;1.70;;
5684;SDS011;2865;53.114;9.130;2022-09-13T12:08:17;4.47;;;1.10;;
5684;SDS011;2865;53.114;9.130;2022-09-13T12:10:50;1.90;;;1.20;;
5684;SDS011;2865;53.114;9.130;2022-09-13T12:13:19;3.20;;;1.20;;
5684;SDS011;2865;53.114;9.130;2022-09-13T12:15:43;9.30;;;1.23;;
5684;SDS011;2865;53.114;9.130;2022-09-13T12:18:10;5.70;;;1.30;;
5684;SDS011;2865;53.114;9.130;2022-09-13T12:20:37;6.13;;;1.40;;
5684;SDS011;2865;53.114;9.130;2022-09-13T12:23:04;3.30;;;1.13;;
5684;SDS011;2865;53.114;9.130;2022-09-13T12:25:33;2.90;;;1.13;;
5684;SDS011;2865;53.114;9.130;2022-09-13T12:28:02;2.60;;;1.20;;
5684;SDS011;2865;53.114;9.130;2022-09-13T12:30:30;8.47;;;1.17;;
5684;SDS011;2865;53.114;9.130;2022-09-13T12:32:53;2.60;;;1.20;;
5684;SDS011;2865;53.114;9.130;2022-09-13T12:35:24;2.13;;;1.00;;
5684;SDS011;2865;53.114;9.130;2022-09-13T12:37:53;3.63;;;1.10;;
5684;SDS011;2865;53.114;9.130;2022-09-13T12:43:05;3.03;;;0.97;;
5684;SDS011;2865;53.114;9.130;2022-09-13T12:45:51;3.23;;;1.73;;
5684;SDS011;2865;53.114;9.130;2022-09-13T12:48:22;3.53;;;1.00;;
5684;SDS011;2865;53.114;9.130;2022-09-13T12:51:00;10.83;;;1.20;;
5684;SDS011;2865;53.114;9.130;2022-09-13T12:53:36;3.13;;;1.33;;
5684;SDS011;2865;53.114;9.130;2022-09-13T12:59:03;5.73;;;1.00;;
5684;SDS011;2865;53.114;9.130;2022-09-13T13:01:31;1.73;;;1.00;;
5684;SDS011;2865;53.114;9.130;2022-09-13T13:04:00;6.40;;;1.70;;
5684;SDS011;2865;53.114;9.130;2022-09-13T13:06:26;5.93;;;1.30;;
5684;SDS011;2865;53.114;9.130;2022-09-13T13:08:51;3.80;;;1.40;;
5684;SDS011;2865;53.114;9.130;2022-09-13T13:11:16;5.13;;;1.67;;
5684;SDS011;2865;53.114;9.130;2022-09-13T13:13:42;3.23;;;0.90;;
5684;SDS011;2865;53.114;9.130;2022-09-13T13:18:45;4.83;;;1.40;;
5684;SDS011;2865;53.114;9.130;2022-09-13T13:23:45;4.70;;;1.33;;
5684;SDS011;2865;53.114;9.130;2022-09-13T13:26:41;4.60;;;1.40;;
5684;SDS011;2865;53.114;9.130;2022-09-13T13:28:50;3.33;;;1.10;;
5684;SDS011;2865;53.114;9.130;2022-09-13T13:36:56;5.23;;;1.63;;
5684;SDS011;2865;53.114;9.130;2022-09-13T13:39:38;4.20;;;1.07;;
5684;SDS011;2865;53.114;9.130;2022-09-13T13:42:11;4.63;;;1.30;;
5684;SDS011;2865;53.114;9.130;2022-09-13T13:44:55;5.40;;;1.00;;
5684;SDS011;2865;53.114;9.130;2022-09-13T13:47:53;3.53;;;1.43;;
5684;SDS011;2865;53.114;9.130;2022-09-13T13:50:12;2.13;;;0.90;;
5684;SDS011;2865;53.114;9.130;2022-09-13T13:52:35;3.07;;;1.70;;
5684;SDS011;2865;53.114;9.130;2022-09-13T13:55:01;7.03;;;1.10;;
5684;SDS011;2865;53.114;9.130;2022-09-13T13:57:34;3.47;;;1.83;;
5684;SDS011;2865;53.114;9.130;2022-09-13T14:03:15;5.60;;;1.23;;
5684;SDS011;2865;53.114;9.130;2022-09-13T14:05:51;2.30;;;0.97;;
5684;SDS011;2865;53.114;9.130;2022-09-13T14:11:08;4.00;;;1.27;;
5684;SDS011;2865;53.114;9.130;2022-09-13T14:16:36;2.80;;;1.27;;
5684;SDS011;2865;53.114;9.130;2022-09-13T14:22:05;2.40;;;1.50;;
5684;SDS011;2865;53.114;9.130;2022-09-13T14:24:35;1.93;;;0.90;;
5684;SDS011;2865;53.114;9.130;2022-09-13T14:27:00;2.93;;;1.33;;
5684;SDS011;2865;53.114;9.130;2022-09-13T14:29:25;3.87;;;1.40;;
5684;SDS011;2865;53.114;9.130;2022-09-13T14:31:52;4.93;;;1.27;;
5684;SDS011;2865;53.114;9.130;2022-09-13T14:34:22;4.00;;;1.00;;
5684;SDS011;2865;53.114;9.130;2022-09-13T14:36:50;3.93;;;1.60;;
5684;SDS011;2865;53.114;9.130;2022-09-13T14:39:15;3.93;;;1.40;;
5684;SDS011;2865;53.114;9.130;2022-09-13T14:41:40;9.00;;;1.63;;
5684;SDS011;2865;53.114;9.130;2022-09-13T14:44:13;4.77;;;1.30;;
5684;SDS011;2865;53.114;9.130;2022-09-13T14:46:38;3.87;;;1.57;;
5684;SDS011;2865;53.114;9.130;2022-09-13T14:49:04;4.27;;;1.10;;
5684;SDS011;2865;53.114;9.130;2022-09-13T14:51:29;5.80;;;1.53;;
5684;SDS011;2865;53.114;9.130;2022-09-13T14:53:56;9.83;;;1.27;;
5684;SDS011;2865;53.114;9.130;2022-09-13T14:56:26;4.30;;;1.27;;
5684;SDS011;2865;53.114;9.130;2022-09-13T14:58:54;5.30;;;1.73;;
5684;SDS011;2865;53.114;9.130;2022-09-13T15:01:19;4.97;;;1.13;;
5684;SDS011;2865;53.114;9.130;2022-09-13T15:03:44;6.50;;;1.10;;
5684;SDS011;2865;53.114;9.130;2022-09-13T15:08:45;7.10;;;1.37;;
5684;SDS011;2865;53.114;9.130;2022-09-13T15:11:12;4.80;;;1.20;;
5684;SDS011;2865;53.114;9.130;2022-09-13T15:13:36;8.83;;;2.47;;
5684;SDS011;2865;53.114;9.130;2022-09-13T15:16:22;6.40;;;1.30;;
5684;SDS011;2865;53.114;9.130;2022-09-13T15:18:29;4.57;;;1.27;;
5684;SDS011;2865;53.114;9.130;2022-09-13T15:20:58;16.47;;;1.93;;
5684;SDS011;2865;53.114;9.130;2022-09-13T15:23:35;6.87;;;1.87;;
5684;SDS011;2865;53.114;9.130;2022-09-13T15:26:06;7.33;;;1.23;;
5684;SDS011;2865;53.114;9.130;2022-09-13T15:28:33;4.80;;;1.50;;
5684;SDS011;2865;53.114;9.130;2022-09-13T15:30:57;12.60;;;1.70;;
5684;SDS011;2865;53.114;9.130;2022-09-13T15:33:24;4.03;;;2.10;;
5684;SDS011;2865;53.114;9.130;2022-09-13T15:35:50;10.80;;;1.60;;
5684;SDS011;2865;53.114;9.130;2022-09-13T15:38:20;5.60;;;1.73;;
5684;SDS011;2865;53.114;9.130;2022-09-13T15:40:56;6.23;;;1.60;;
5684;SDS011;2865;53.114;9.130;2022-09-13T15:43:12;8.60;;;1.63;;
5684;SDS011;2865;53.114;9.130;2022-09-13T15:45:37;5.00;;;2.10;;
5684;SDS011;2865;53.114;9.130;2022-09-13T15:48:03;6.60;;;1.57;;
5684;SDS011;2865;53.114;9.130;2022-09-13T15:50:29;4.97;;;1.60;;
5684;SDS011;2865;53.114;9.130;2022-09-13T15:52:54;4.40;;;1.50;;
5684;SDS011;2865;53.114;9.130;2022-09-13T15:55:19;10.40;;;1.77;;
5684;SDS011;2865;53.114;9.130;2022-09-13T15:57:45;7.53;;;2.27;;
5684;SDS011;2865;53.114;9.130;2022-09-13T16:00:14;5.57;;;1.40;;
5684;SDS011;2865;53.114;9.130;2022-09-13T16:02:39;6.47;;;2.10;;
5684;SDS011;2865;53.114;9.130;2022-09-13T16:05:04;6.37;;;2.57;;
5684;SDS011;2865;53.114;9.130;2022-09-13T16:07:30;10.37;;;1.67;;
5684;SDS011;2865;53.114;9.130;2022-09-13T16:09:56;6.07;;;1.70;;
5684;SDS011;2865;53.114;9.130;2022-09-13T16:12:21;7.23;;;1.67;;
5684;SDS011;2865;53.114;9.130;2022-09-13T16:14:47;6.60;;;1.97;;
5684;SDS011;2865;53.114;9.130;2022-09-13T16:17:18;6.80;;;2.10;;
5684;SDS011;2865;53.114;9.130;2022-09-13T16:19:41;5.10;;;1.97;;
5684;SDS011;2865;53.114;9.130;2022-09-13T16:22:07;5.70;;;1.93;;